Time;durP1;ratioP1;P1;durP2;ratioP2;P2;SDS_P1;SDS_P2;PMS_P1;PMS_P2;Temp;Humidity;BMP_temperature;BMP_pressure;BME280_temperature;BME280_humidity;BME280_pressure;Samples;Min_cycle;Max_cycle;Signal;HPM_P1;HPM_P2
2022/05/30 00:00:35;;;;;;;4.20;3.28;;;;;;;;;;5067332;28;20076;-58
2022/05/30 00:03:00;;;;;;;4.55;3.25;;;;;;;;;;5072294;28;20028;-57
2022/05/30 00:05:27;;;;;;;4.60;3.15;;;;;;;;;;5073822;28;20656;-57
2022/05/30 00:07:52;;;;;;;4.50;3.33;;;;;;;;;;5071254;28;20047;-57
2022/05/30 00:10:19;;;;;;;5.22;3.13;;;;;;;;;;5070789;28;20021;-57
2022/05/30 00:12:45;;;;;;;4.63;3.50;;;;;;;;;;5074866;28;20042;-57
2022/05/30 00:15:14;;;;;;;4.72;3.60;;;;;;;;;;5074363;28;20095;-57
2022/05/30 00:17:39;;;;;;;7.05;4.38;;;;;;;;;;5072995;28;20051;-57
2022/05/30 00:20:06;;;;;;;5.85;3.45;;;;;;;;;;5063073;28;20488;-57
2022/05/30 00:22:32;;;;;;;3.60;3.28;;;;;;;;;;5077434;28;20017;-57
2022/05/30 00:24:57;;;;;;;4.47;3.10;;;;;;;;;;5076278;28;20517;-57
2022/05/30 00:27:22;;;;;;;4.68;3.58;;;;;;;;;;5069738;28;20032;-57
2022/05/30 00:29:48;;;;;;;5.90;3.35;;;;;;;;;;5067773;28;20036;-57
2022/05/30 00:32:14;;;;;;;7.32;3.38;;;;;;;;;;5069372;28;20077;-57
2022/05/30 00:34:40;;;;;;;5.30;3.22;;;;;;;;;;5070359;28;20043;-57
2022/05/30 00:37:05;;;;;;;8.45;4.10;;;;;;;;;;5068331;28;20028;-57
2022/05/30 00:39:32;;;;;;;4.70;3.17;;;;;;;;;;5071638;28;20016;-57
2022/05/30 00:42:13;;;;;;;4.75;3.90;;;;;;;;;;5068283;28;20029;-57
2022/05/30 00:44:39;;;;;;;5.50;3.63;;;;;;;;;;5069357;28;20082;-57
2022/05/30 00:47:04;;;;;;;4.97;3.55;;;;;;;;;;5071797;28;20021;-57
2022/05/30 00:49:30;;;;;;;4.20;3.40;;;;;;;;;;5072647;28;20039;-57
2022/05/30 00:51:56;;;;;;;3.58;3.15;;;;;;;;;;5066397;28;20044;-57
2022/05/30 00:54:28;;;;;;;6.03;3.60;;;;;;;;;;5064203;28;20029;-57
2022/05/30 00:56:57;;;;;;;6.85;3.83;;;;;;;;;;5070520;28;20039;-57
2022/05/30 00:59:22;;;;;;;7.28;3.60;;;;;;;;;;5069026;28;20024;-57
2022/05/30 01:01:48;;;;;;;11.95;3.60;;;;;;;;;;5067887;28;20042;-57
2022/05/30 01:07:04;;;;;;;5.45;3.30;;;;;;;;;;5069773;28;20086;-57
2022/05/30 01:09:40;;;;;;;4.15;3.17;;;;;;;;;;5070504;28;20351;-57
2022/05/30 01:12:11;;;;;;;3.90;3.50;;;;;;;;;;5060962;28;20025;-57
2022/05/30 01:14:40;;;;;;;7.47;3.63;;;;;;;;;;5074293;28;20031;-57
2022/05/30 01:17:08;;;;;;;4.43;3.35;;;;;;;;;;5067671;28;20040;-57
2022/05/30 01:19:40;;;;;;;3.40;3.10;;;;;;;;;;5069957;28;20024;-57
2022/05/30 01:22:08;;;;;;;6.40;3.60;;;;;;;;;;5063175;28;20277;-57
2022/05/30 01:24:43;;;;;;;4.68;3.50;;;;;;;;;;5061162;28;20039;-57
2022/05/30 01:27:08;;;;;;;8.85;3.67;;;;;;;;;;5063710;28;20365;-57
2022/05/30 01:29:40;;;;;;;5.85;3.85;;;;;;;;;;5068625;28;20020;-57
2022/05/30 01:32:05;;;;;;;5.10;2.92;;;;;;;;;;5056855;28;20021;-57
2022/05/30 01:34:31;;;;;;;4.50;3.50;;;;;;;;;;5062018;28;20025;-57
2022/05/30 01:36:56;;;;;;;5.50;3.40;;;;;;;;;;5066453;28;20066;-57
2022/05/30 01:39:21;;;;;;;5.10;3.08;;;;;;;;;;5064163;28;20020;-57
2022/05/30 01:41:47;;;;;;;6.65;4.13;;;;;;;;;;5061023;28;20028;-57
2022/05/30 01:44:14;;;;;;;4.03;3.60;;;;;;;;;;5057013;28;20098;-57
2022/05/30 01:46:40;;;;;;;3.42;3.13;;;;;;;;;;5063421;28;20150;-57
2022/05/30 01:49:05;;;;;;;9.57;3.72;;;;;;;;;;5064672;28;20028;-57
2022/05/30 01:51:32;;;;;;;5.50;3.45;;;;;;;;;;5072439;28;20036;-57
2022/05/30 01:53:58;;;;;;;4.95;3.03;;;;;;;;;;5068938;28;20024;-57
2022/05/30 01:56:24;;;;;;;3.92;3.13;;;;;;;;;;5072530;28;20098;-57
2022/05/30 01:58:50;;;;;;;8.15;3.30;;;;;;;;;;5071797;28;20081;-57
2022/05/30 02:01:21;;;;;;;3.85;3.45;;;;;;;;;;5076204;28;20475;-57
2022/05/30 02:03:48;;;;;;;4.85;3.42;;;;;;;;;;5072889;28;20023;-57
2022/05/30 02:06:14;;;;;;;4.05;3.20;;;;;;;;;;5072553;28;20040;-57
2022/05/30 02:08:39;;;;;;;6.25;3.42;;;;;;;;;;5074454;28;20032;-57
2022/05/30 02:11:08;;;;;;;3.60;3.10;;;;;;;;;;5073672;28;20474;-57
2022/05/30 02:13:34;;;;;;;5.28;3.30;;;;;;;;;;5072325;28;20441;-57
2022/05/30 02:18:46;;;;;;;4.53;3.03;;;;;;;;;;5076079;28;20615;-57
2022/05/30 02:21:11;;;;;;;8.25;4.22;;;;;;;;;;5069819;28;20217;-57
2022/05/30 02:23:37;;;;;;;6.63;3.25;;;;;;;;;;5066989;28;20083;-57
2022/05/30 02:26:02;;;;;;;6.90;3.38;;;;;;;;;;5066434;28;20052;-57
2022/05/30 02:28:28;;;;;;;5.07;3.03;;;;;;;;;;5068220;28;20085;-57
2022/05/30 02:30:53;;;;;;;7.15;4.85;;;;;;;;;;5067352;28;20429;-56
2022/05/30 02:38:48;;;;;;;6.80;3.50;;;;;;;;;;5064495;28;20541;-57
2022/05/30 02:41:14;;;;;;;8.13;3.17;;;;;;;;;;5063085;28;20079;-57
2022/05/30 02:43:39;;;;;;;5.30;3.08;;;;;;;;;;5071539;28;20028;-57
2022/05/30 02:46:05;;;;;;;3.70;3.33;;;;;;;;;;5064026;28;20029;-57
2022/05/30 02:48:30;;;;;;;4.43;3.28;;;;;;;;;;5066423;28;20056;-57
2022/05/30 02:50:56;;;;;;;4.78;3.20;;;;;;;;;;5069982;28;20039;-57
2022/05/30 02:53:21;;;;;;;5.55;3.00;;;;;;;;;;5074267;28;20023;-57
2022/05/30 02:55:47;;;;;;;4.78;3.30;;;;;;;;;;5069407;28;20028;-57
2022/05/30 02:58:12;;;;;;;3.45;3.15;;;;;;;;;;5073130;28;20032;-57
2022/05/30 03:00:38;;;;;;;5.20;3.38;;;;;;;;;;5070642;28;20033;-57
2022/05/30 03:03:04;;;;;;;5.90;3.50;;;;;;;;;;5071984;28;20020;-57
2022/05/30 03:05:30;;;;;;;4.55;3.53;;;;;;;;;;5073440;28;20487;-57
2022/05/30 03:07:56;;;;;;;5.68;3.28;;;;;;;;;;5071165;28;21332;-57
2022/05/30 03:10:22;;;;;;;6.57;4.10;;;;;;;;;;5069344;28;20021;-57
2022/05/30 03:12:47;;;;;;;6.88;3.70;;;;;;;;;;5069472;28;20025;-57
2022/05/30 03:15:12;;;;;;;4.55;3.58;;;;;;;;;;5071793;28;20026;-57
2022/05/30 03:17:38;;;;;;;5.85;3.78;;;;;;;;;;5071296;28;20059;-57
2022/05/30 03:20:04;;;;;;;3.75;3.40;;;;;;;;;;5068155;28;20023;-57
2022/05/30 03:22:29;;;;;;;6.72;3.38;;;;;;;;;;5062237;28;20047;-57
2022/05/30 03:24:55;;;;;;;9.27;3.83;;;;;;;;;;5062135;28;20037;-56
2022/05/30 03:27:20;;;;;;;5.95;3.97;;;;;;;;;;5063092;28;20119;-57
2022/05/30 03:29:45;;;;;;;4.63;3.95;;;;;;;;;;5067963;28;20059;-57
2022/05/30 03:32:11;;;;;;;7.57;4.30;;;;;;;;;;5061235;28;20036;-57
2022/05/30 03:34:36;;;;;;;6.13;3.72;;;;;;;;;;5065997;28;20021;-57
2022/05/30 03:37:02;;;;;;;5.57;3.53;;;;;;;;;;5064609;28;20028;-57
2022/05/30 03:39:27;;;;;;;4.40;3.40;;;;;;;;;;5069048;28;20039;-57
2022/05/30 03:41:52;;;;;;;11.70;4.60;;;;;;;;;;5062702;28;20021;-57
2022/05/30 03:44:18;;;;;;;11.43;4.70;;;;;;;;;;5065514;28;20080;-58
2022/05/30 03:46:43;;;;;;;11.02;6.07;;;;;;;;;;5062400;28;20075;-57
2022/05/30 03:49:09;;;;;;;6.10;4.32;;;;;;;;;;5073230;28;20099;-56
2022/05/30 03:51:34;;;;;;;7.32;3.67;;;;;;;;;;5071022;28;20027;-57
2022/05/30 03:54:00;;;;;;;5.47;3.75;;;;;;;;;;5070779;28;20029;-57
2022/05/30 03:56:25;;;;;;;5.32;3.80;;;;;;;;;;5071235;28;20036;-57
2022/05/30 03:58:50;;;;;;;8.30;4.80;;;;;;;;;;5072590;28;20039;-56
2022/05/30 04:01:16;;;;;;;7.88;4.28;;;;;;;;;;5072558;28;20039;-57
2022/05/30 04:03:42;;;;;;;7.15;3.63;;;;;;;;;;5059740;28;20100;-57
2022/05/30 04:06:08;;;;;;;5.25;3.90;;;;;;;;;;5069675;28;20112;-57
2022/05/30 04:08:34;;;;;;;5.28;3.80;;;;;;;;;;5066745;28;20058;-57
2022/05/30 04:11:00;;;;;;;5.70;3.95;;;;;;;;;;5072485;28;20039;-57
2022/05/30 04:13:25;;;;;;;4.63;3.45;;;;;;;;;;5065670;28;20398;-57
2022/05/30 04:15:51;;;;;;;4.50;3.42;;;;;;;;;;5068634;28;20590;-57
2022/05/30 04:18:16;;;;;;;4.70;3.58;;;;;;;;;;5068412;28;20450;-57
2022/05/30 04:20:42;;;;;;;5.75;3.90;;;;;;;;;;5067096;28;20391;-57
2022/05/30 04:23:08;;;;;;;5.15;4.30;;;;;;;;;;5065861;28;20041;-57
2022/05/30 04:25:33;;;;;;;5.57;3.80;;;;;;;;;;5062587;28;20028;-57
2022/05/30 04:27:59;;;;;;;7.28;3.85;;;;;;;;;;5064145;28;20028;-57
2022/05/30 04:30:25;;;;;;;5.55;4.03;;;;;;;;;;5064446;28;20112;-57
2022/05/30 04:32:51;;;;;;;6.20;3.90;;;;;;;;;;5058160;28;20024;-57
2022/05/30 04:35:16;;;;;;;6.47;4.40;;;;;;;;;;5060392;28;20020;-57
2022/05/30 04:37:42;;;;;;;7.63;4.65;;;;;;;;;;5063872;28;20479;-57
2022/05/30 04:40:13;;;;;;;9.82;4.15;;;;;;;;;;5067115;28;20032;-57
2022/05/30 04:42:39;;;;;;;4.72;3.67;;;;;;;;;;5065699;28;20016;-56
2022/05/30 04:45:06;;;;;;;5.07;3.85;;;;;;;;;;5062891;28;20472;-57
2022/05/30 04:47:36;;;;;;;8.15;4.18;;;;;;;;;;5065987;28;20024;-57
2022/05/30 04:50:02;;;;;;;;;;;;;;;;;;5071775;28;21263;-57
2022/05/30 04:52:27;;;;;;;5.43;3.30;;;;;;;;;;5066000;28;19963;-57
2022/05/30 04:54:53;;;;;;;7.97;3.35;;;;;;;;;;5067857;28;20060;-57
2022/05/30 04:57:18;;;;;;;8.27;4.13;;;;;;;;;;5070528;28;20036;-57
2022/05/30 04:59:44;;;;;;;7.13;3.88;;;;;;;;;;5070638;28;20073;-57
2022/05/30 05:02:11;;;;;;;5.75;3.47;;;;;;;;;;5066945;28;20030;-58
2022/05/30 05:04:39;;;;;;;6.28;3.78;;;;;;;;;;5065254;28;20404;-57
2022/05/30 05:07:05;;;;;;;6.03;4.15;;;;;;;;;;5067803;28;20371;-57
2022/05/30 05:09:47;;;;;;;5.00;3.65;;;;;;;;;;5066134;28;20031;-57
2022/05/30 05:12:12;;;;;;;5.68;3.88;;;;;;;;;;5064098;28;20012;-57
2022/05/30 05:14:38;;;;;;;6.47;4.20;;;;;;;;;;5068135;28;20028;-57
2022/05/30 05:17:08;;;;;;;6.50;4.55;;;;;;;;;;5066157;28;20024;-57
2022/05/30 05:19:33;;;;;;;;;;;;;;;;;;5064863;28;20033;-58
2022/05/30 05:21:59;;;;;;;6.78;4.72;;;;;;;;;;5061446;28;19913;-58
2022/05/30 05:24:25;;;;;;;9.10;6.13;;;;;;;;;;5063432;28;20410;-58
2022/05/30 05:26:50;;;;;;;10.85;5.97;;;;;;;;;;5062166;28;20028;-58
2022/05/30 05:29:17;;;;;;;11.68;6.20;;;;;;;;;;5049570;28;20036;-58
2022/05/30 05:31:43;;;;;;;10.55;5.95;;;;;;;;;;5058055;28;20029;-58
2022/05/30 05:34:12;;;;;;;9.48;6.55;;;;;;;;;;5056399;28;20029;-58
2022/05/30 05:36:40;;;;;;;7.45;6.13;;;;;;;;;;5061346;28;20028;-58
2022/05/30 05:39:07;;;;;;;10.90;7.13;;;;;;;;;;5064646;28;20032;-58
2022/05/30 05:41:33;;;;;;;16.10;6.85;;;;;;;;;;5062176;28;20439;-58
2022/05/30 05:43:58;;;;;;;13.02;7.25;;;;;;;;;;5058324;28;20066;-58
2022/05/30 05:46:30;;;;;;;15.45;7.43;;;;;;;;;;5066777;28;20036;-58
2022/05/30 05:48:56;;;;;;;12.27;7.57;;;;;;;;;;5061000;28;20017;-58
2022/05/30 05:51:23;;;;;;;12.13;7.82;;;;;;;;;;5065640;28;20053;-59
2022/05/30 05:53:49;;;;;;;14.32;8.65;;;;;;;;;;5061485;28;20032;-58
2022/05/30 05:56:20;;;;;;;12.57;8.40;;;;;;;;;;5064157;28;20091;-59
2022/05/30 05:58:46;;;;;;;15.85;8.70;;;;;;;;;;5067369;28;20095;-58
2022/05/30 06:01:18;;;;;;;11.82;8.63;;;;;;;;;;5068937;28;20181;-58
2022/05/30 06:03:44;;;;;;;18.67;8.18;;;;;;;;;;5062608;28;20117;-58
2022/05/30 06:06:09;;;;;;;11.98;7.40;;;;;;;;;;5067248;28;20111;-58
2022/05/30 06:08:35;;;;;;;13.48;7.78;;;;;;;;;;5068366;28;20447;-58
2022/05/30 06:11:11;;;;;;;9.63;7.00;;;;;;;;;;5068608;28;20032;-58
2022/05/30 06:13:41;;;;;;;10.02;6.45;;;;;;;;;;5067263;28;20059;-58
2022/05/30 06:16:10;;;;;;;10.23;6.95;;;;;;;;;;5055608;28;20028;-58
2022/05/30 06:18:35;;;;;;;8.10;6.20;;;;;;;;;;5056705;28;20055;-58
2022/05/30 06:21:01;;;;;;;10.98;6.47;;;;;;;;;;5056792;28;20510;-58
2022/05/30 06:23:27;;;;;;;12.40;6.65;;;;;;;;;;5061040;28;20021;-58
2022/05/30 06:25:53;;;;;;;8.18;7.20;;;;;;;;;;5053726;28;20420;-58
2022/05/30 06:28:18;;;;;;;8.65;6.63;;;;;;;;;;5063154;28;20024;-58
2022/05/30 06:30:43;;;;;;;8.95;5.90;;;;;;;;;;5066052;28;20047;-58
2022/05/30 06:33:09;;;;;;;9.63;6.72;;;;;;;;;;5066396;28;20025;-58
2022/05/30 06:35:38;;;;;;;8.98;6.05;;;;;;;;;;5065599;28;20044;-58
2022/05/30 06:38:03;;;;;;;10.73;6.78;;;;;;;;;;5066416;28;20070;-58
2022/05/30 06:40:29;;;;;;;10.07;6.75;;;;;;;;;;5060661;28;20048;-58
2022/05/30 06:42:54;;;;;;;11.10;6.38;;;;;;;;;;5061684;28;20090;-58
2022/05/30 06:45:20;;;;;;;10.65;6.55;;;;;;;;;;5068647;28;20062;-58
2022/05/30 06:47:45;;;;;;;9.13;6.53;;;;;;;;;;5060438;28;20040;-58
2022/05/30 06:50:11;;;;;;;11.73;7.05;;;;;;;;;;5063293;28;20492;-58
2022/05/30 06:52:36;;;;;;;11.02;6.60;;;;;;;;;;5056796;28;20025;-58
2022/05/30 06:55:01;;;;;;;8.80;6.80;;;;;;;;;;5065171;28;20080;-58
2022/05/30 07:00:11;;;;;;;9.13;5.95;;;;;;;;;;5065764;28;20037;-58
2022/05/30 07:02:37;;;;;;;8.60;5.07;;;;;;;;;;5057239;28;20040;-59
2022/05/30 07:05:03;;;;;;;7.25;4.60;;;;;;;;;;5058280;28;20463;-58
2022/05/30 07:07:28;;;;;;;8.23;4.70;;;;;;;;;;5055781;28;20028;-58
2022/05/30 07:09:54;;;;;;;5.30;4.28;;;;;;;;;;5062238;28;20024;-58
2022/05/30 07:12:19;;;;;;;6.93;4.40;;;;;;;;;;5063641;28;20142;-59
2022/05/30 07:14:45;;;;;;;4.30;3.80;;;;;;;;;;5060828;28;20396;-58
2022/05/30 07:17:11;;;;;;;7.82;4.80;;;;;;;;;;5064796;28;20040;-58
2022/05/30 07:19:37;;;;;;;5.93;4.82;;;;;;;;;;5062561;28;20025;-58
2022/05/30 07:22:03;;;;;;;10.50;5.03;;;;;;;;;;5064382;28;20039;-58
2022/05/30 07:24:29;;;;;;;7.07;5.00;;;;;;;;;;5051913;28;20128;-59
2022/05/30 07:26:54;;;;;;;7.55;5.00;;;;;;;;;;5063270;28;20040;-59
2022/05/30 07:29:20;;;;;;;6.75;4.60;;;;;;;;;;5065586;28;20017;-59
2022/05/30 07:31:46;;;;;;;6.18;4.20;;;;;;;;;;5061084;28;20013;-62
2022/05/30 07:34:11;;;;;;;9.70;4.78;;;;;;;;;;5065932;28;20089;-59
2022/05/30 07:36:36;;;;;;;7.40;4.80;;;;;;;;;;5064807;28;20132;-59
2022/05/30 07:39:02;;;;;;;5.85;4.40;;;;;;;;;;5055214;28;20472;-59
2022/05/30 07:41:30;;;;;;;5.93;4.65;;;;;;;;;;5055352;28;20044;-59
2022/05/30 07:43:56;;;;;;;9.63;4.85;;;;;;;;;;5053793;28;20340;-59
2022/05/30 07:46:21;;;;;;;7.38;4.53;;;;;;;;;;5058093;28;20025;-59
2022/05/30 07:48:47;;;;;;;7.18;5.00;;;;;;;;;;5066080;28;20399;-59
2022/05/30 07:51:14;;;;;;;5.93;4.50;;;;;;;;;;5058094;28;20082;-59
2022/05/30 07:53:41;;;;;;;5.53;4.40;;;;;;;;;;5060930;28;20035;-59
2022/05/30 07:56:09;;;;;;;7.10;4.50;;;;;;;;;;5058905;28;20484;-59
2022/05/30 07:58:36;;;;;;;7.05;4.90;;;;;;;;;;5054380;28;20154;-59
2022/05/30 08:01:03;;;;;;;6.07;4.90;;;;;;;;;;5054425;28;20025;-59
2022/05/30 08:03:28;;;;;;;6.25;5.10;;;;;;;;;;5055916;28;20039;-59
2022/05/30 08:06:04;;;;;;;7.75;4.55;;;;;;;;;;5059441;28;20024;-59
2022/05/30 08:08:30;;;;;;;5.90;4.60;;;;;;;;;;5058649;28;20078;-59
2022/05/30 08:10:55;;;;;;;7.47;5.18;;;;;;;;;;5059567;28;20025;-59
2022/05/30 08:13:20;;;;;;;8.43;4.65;;;;;;;;;;5053422;28;20101;-59
2022/05/30 08:15:46;;;;;;;6.68;4.63;;;;;;;;;;5062450;28;20024;-59
2022/05/30 08:18:16;;;;;;;5.50;4.00;;;;;;;;;;5060911;28;20108;-59
2022/05/30 08:20:42;;;;;;;7.50;4.15;;;;;;;;;;5050892;28;20044;-59
2022/05/30 08:23:08;;;;;;;10.32;4.43;;;;;;;;;;5054277;28;20025;-59
2022/05/30 08:25:33;;;;;;;9.15;3.95;;;;;;;;;;5064965;28;20116;-59
2022/05/30 08:27:59;;;;;;;7.15;4.20;;;;;;;;;;5059715;28;20348;-59
2022/05/30 08:30:24;;;;;;;6.32;3.60;;;;;;;;;;5064734;28;20442;-59
2022/05/30 08:32:50;;;;;;;8.35;3.88;;;;;;;;;;5058408;28;20033;-59
2022/05/30 08:35:18;;;;;;;6.22;3.60;;;;;;;;;;5058230;28;20424;-59
2022/05/30 08:37:45;;;;;;;7.73;4.10;;;;;;;;;;5060433;28;20036;-59
2022/05/30 08:43:04;;;;;;;7.07;4.13;;;;;;;;;;5059349;28;20075;-59
2022/05/30 08:45:30;;;;;;;6.57;3.67;;;;;;;;;;5057683;28;20048;-59
2022/05/30 08:47:58;;;;;;;6.00;3.28;;;;;;;;;;5058179;28;20032;-59
2022/05/30 08:50:47;;;;;;;8.20;3.45;;;;;;;;;;5062738;28;20043;-59
2022/05/30 08:53:29;;;;;;;13.07;4.55;;;;;;;;;;5062095;28;20479;-59
2022/05/30 08:56:04;;;;;;;7.43;3.67;;;;;;;;;;5065982;28;20052;-59
2022/05/30 08:58:53;;;;;;;7.55;3.58;;;;;;;;;;5062114;28;20190;-59
2022/05/30 09:01:40;;;;;;;5.03;3.35;;;;;;;;;;5065718;28;20032;-59
2022/05/30 09:04:39;;;;;;;5.20;3.10;;;;;;;;;;5058794;28;20036;-59
2022/05/30 09:07:09;;;;;;;7.13;2.97;;;;;;;;;;5059786;28;20417;-59
2022/05/30 09:09:43;;;;;;;3.53;2.67;;;;;;;;;;5063448;28;20028;-59
2022/05/30 09:12:49;;;;;;;5.53;2.78;;;;;;;;;;5059507;28;20038;-59
2022/05/30 09:15:20;;;;;;;5.18;2.55;;;;;;;;;;5057870;28;20029;-59
2022/05/30 09:17:54;;;;;;;4.90;2.60;;;;;;;;;;5062255;28;20043;-59
2022/05/30 09:20:21;;;;;;;3.28;2.00;;;;;;;;;;5053054;28;20037;-59
2022/05/30 09:22:47;;;;;;;3.50;2.05;;;;;;;;;;5050411;28;20033;-59
2022/05/30 09:28:05;;;;;;;4.10;1.85;;;;;;;;;;5055006;28;20613;-59
2022/05/30 09:30:42;;;;;;;5.70;1.70;;;;;;;;;;5051345;28;20115;-59
2022/05/30 09:33:32;;;;;;;2.50;1.92;;;;;;;;;;5049688;28;20028;-60
2022/05/30 09:36:20;;;;;;;3.45;1.70;;;;;;;;;;5051143;28;20017;-59
2022/05/30 09:38:47;;;;;;;3.25;1.90;;;;;;;;;;5052862;28;20503;-59
2022/05/30 09:41:20;;;;;;;2.88;1.60;;;;;;;;;;5050432;28;20392;-60
2022/05/30 09:43:50;;;;;;;3.88;2.30;;;;;;;;;;5052931;28;20566;-59
2022/05/30 09:46:25;;;;;;;4.85;1.90;;;;;;;;;;5050960;28;20124;-60
2022/05/30 09:49:14;;;;;;;4.15;2.10;;;;;;;;;;5053722;28;20082;-59
2022/05/30 09:51:45;;;;;;;3.50;2.10;;;;;;;;;;5050535;28;20055;-59
2022/05/30 09:54:33;;;;;;;3.30;1.92;;;;;;;;;;5053056;28;20071;-57
2022/05/30 09:57:06;;;;;;;2.88;1.83;;;;;;;;;;5051564;28;20492;-59
2022/05/30 09:59:38;;;;;;;2.38;1.70;;;;;;;;;;5052831;28;20430;-59
2022/05/30 10:02:24;;;;;;;4.70;1.80;;;;;;;;;;5050735;28;20029;-59
2022/05/30 10:05:06;;;;;;;2.92;1.80;;;;;;;;;;5051928;28;20139;-59
2022/05/30 10:07:33;;;;;;;9.80;2.58;;;;;;;;;;5049130;28;20061;-57
2022/05/30 10:09:59;;;;;;;3.00;2.00;;;;;;;;;;5049458;28;20128;-58
2022/05/30 10:12:44;;;;;;;3.50;1.88;;;;;;;;;;5053740;28;20156;-58
2022/05/30 10:15:41;;;;;;;3.70;1.80;;;;;;;;;;5051166;28;20250;-58
2022/05/30 10:18:12;;;;;;;16.83;2.30;;;;;;;;;;5051205;28;20036;-58
2022/05/30 10:21:09;;;;;;;4.97;2.10;;;;;;;;;;5056524;28;20028;-58
2022/05/30 10:30:15;;;;;;;3.00;2.63;;;;;;;;;;5063246;28;20137;-54
2022/05/30 10:33:18;;;;;;;5.60;3.08;;;;;;;;;;5057443;28;20040;-55
2022/05/30 10:35:46;;;;;;;3.70;2.58;;;;;;;;;;5061102;28;20040;-54
2022/05/30 10:38:17;;;;;;;27.67;3.67;;;;;;;;;;5063503;28;20082;-55
2022/05/30 10:41:03;;;;;;;20.35;2.60;;;;;;;;;;5063333;28;20115;-54
2022/05/30 10:43:58;;;;;;;6.68;2.67;;;;;;;;;;5066945;28;20128;-54
2022/05/30 10:46:42;;;;;;;8.40;2.20;;;;;;;;;;5063240;28;20036;-54
2022/05/30 10:49:12;;;;;;;3.85;1.52;;;;;;;;;;5060900;28;20086;-54
2022/05/30 10:52:17;;;;;;;5.38;1.95;;;;;;;;;;5061824;28;20016;-54
2022/05/30 10:54:56;;;;;;;11.68;2.15;;;;;;;;;;5067882;28;20040;-59
2022/05/30 10:57:36;;;;;;;4.20;1.90;;;;;;;;;;5062040;28;20075;-59
2022/05/30 11:00:09;;;;;;;4.00;1.85;;;;;;;;;;5062195;28;20517;-59
2022/05/30 11:03:10;;;;;;;3.50;1.83;;;;;;;;;;5057039;28;20029;-59
2022/05/30 11:05:39;;;;;;;16.65;2.13;;;;;;;;;;5038179;28;20290;-58
2022/05/30 11:08:05;;;;;;;;;;;;;;;;;;5069541;28;20124;-58
2022/05/30 11:10:51;;;;;;;9.55;2.58;;;;;;;;;;5064545;28;19928;-59
2022/05/30 11:13:23;;;;;;;2.38;1.83;;;;;;;;;;5055250;28;20029;-59
2022/05/30 11:15:54;;;;;;;4.03;1.67;;;;;;;;;;5065736;28;20382;-59
2022/05/30 11:18:31;;;;;;;3.22;1.35;;;;;;;;;;5057662;28;20063;-59
2022/05/30 11:21:03;;;;;;;3.63;2.00;;;;;;;;;;5059044;28;20036;-59
2022/05/30 11:23:29;;;;;;;5.53;2.20;;;;;;;;;;5063161;28;20021;-59
2022/05/30 11:26:25;;;;;;;3.05;2.00;;;;;;;;;;5060765;28;20032;-59
2022/05/30 11:29:15;;;;;;;3.50;1.70;;;;;;;;;;5063138;28;20036;-59
2022/05/30 11:31:40;;;;;;;5.00;2.30;;;;;;;;;;5061282;28;20034;-59
2022/05/30 11:34:44;;;;;;;3.10;1.67;;;;;;;;;;5064921;28;20029;-59
2022/05/30 11:37:38;;;;;;;4.40;1.80;;;;;;;;;;5048110;28;20032;-59
2022/05/30 11:40:22;;;;;;;3.60;1.70;;;;;;;;;;5049203;28;20068;-59
2022/05/30 11:43:25;;;;;;;5.70;1.70;;;;;;;;;;5068891;28;20031;-59
2022/05/30 11:46:23;;;;;;;3.75;1.70;;;;;;;;;;5062964;28;20044;-59
2022/05/30 11:48:57;;;;;;;5.65;1.70;;;;;;;;;;5067544;28;20031;-59
2022/05/30 11:51:31;;;;;;;3.65;1.98;;;;;;;;;;5064359;28;20040;-59
2022/05/30 11:54:02;;;;;;;6.10;1.80;;;;;;;;;;5063718;28;20245;-59
2022/05/30 11:56:37;;;;;;;2.92;1.58;;;;;;;;;;5070513;28;20032;-59
2022/05/30 11:59:30;;;;;;;2.67;1.50;;;;;;;;;;5067580;28;20016;-59
2022/05/30 12:01:59;;;;;;;2.55;1.60;;;;;;;;;;5057068;28;20475;-59
2022/05/30 12:04:40;;;;;;;5.45;1.73;;;;;;;;;;5058379;28;20390;-59
2022/05/30 12:07:47;;;;;;;2.85;1.73;;;;;;;;;;5055398;28;20403;-59
2022/05/30 12:10:18;;;;;;;3.92;1.58;;;;;;;;;;5052001;28;20079;-59
2022/05/30 12:13:02;;;;;;;3.10;1.50;;;;;;;;;;5054960;28;20066;-59
2022/05/30 12:15:33;;;;;;;1.90;1.40;;;;;;;;;;5062681;28;20032;-59
2022/05/30 12:24:06;;;;;;;3.63;1.40;;;;;;;;;;5060320;28;20062;-59
2022/05/30 12:26:48;;;;;;;3.00;1.50;;;;;;;;;;5060731;28;20551;-59
2022/05/30 12:29:42;;;;;;;3.05;1.40;;;;;;;;;;5060577;28;20032;-59
2022/05/30 12:32:20;;;;;;;5.65;1.70;;;;;;;;;;5051113;28;20036;-59
2022/05/30 12:35:00;;;;;;;3.05;1.55;;;;;;;;;;5055495;28;20098;-59
2022/05/30 12:38:01;;;;;;;2.15;1.52;;;;;;;;;;5062456;28;20568;-59
2022/05/30 12:40:27;;;;;;;3.55;1.83;;;;;;;;;;5059380;28;20047;-59
2022/05/30 12:43:23;;;;;;;3.47;1.70;;;;;;;;;;5064748;28;20055;-59
2022/05/30 12:45:51;;;;;;;3.90;1.60;;;;;;;;;;5063569;28;20021;-59
2022/05/30 12:48:19;;;;;;;2.88;1.05;;;;;;;;;;5068617;28;20028;-59
2022/05/30 12:50:51;;;;;;;3.40;1.30;;;;;;;;;;5055255;28;20129;-59
2022/05/30 12:53:22;;;;;;;3.58;1.60;;;;;;;;;;5053807;28;20048;-59
2022/05/30 12:55:53;;;;;;;2.28;1.50;;;;;;;;;;5053827;28;20028;-59
2022/05/30 12:58:21;;;;;;;3.15;1.70;;;;;;;;;;5059031;28;20454;-58
2022/05/30 13:01:10;;;;;;;5.03;1.80;;;;;;;;;;5058050;28;20036;-55
2022/05/30 13:03:39;;;;;;;4.85;1.85;;;;;;;;;;5062529;28;20399;-55
2022/05/30 13:06:14;;;;;;;2.22;1.63;;;;;;;;;;5065944;28;20040;-56
2022/05/30 13:08:56;;;;;;;3.38;1.83;;;;;;;;;;5061177;28;20029;-55
2022/05/30 13:11:49;;;;;;;3.08;1.70;;;;;;;;;;5057892;28;20403;-56
2022/05/30 13:14:19;;;;;;;2.45;1.60;;;;;;;;;;5061051;28;20055;-55
2022/05/30 13:16:47;;;;;;;2.70;1.67;;;;;;;;;;5063201;28;20029;-54
2022/05/30 13:19:15;;;;;;;3.10;1.80;;;;;;;;;;5062869;28;20484;-55
2022/05/30 13:21:43;;;;;;;2.95;1.67;;;;;;;;;;5060583;28;20091;-55
2022/05/30 13:24:26;;;;;;;2.17;1.70;;;;;;;;;;5057183;28;20086;-55
2022/05/30 13:26:52;;;;;;;2.42;1.80;;;;;;;;;;5055548;28;20101;-55
2022/05/30 13:29:17;;;;;;;4.63;1.70;;;;;;;;;;5049962;28;20021;-56
2022/05/30 13:31:48;;;;;;;2.97;1.70;;;;;;;;;;5051776;28;20411;-55
2022/05/30 13:34:21;;;;;;;3.55;1.77;;;;;;;;;;5052164;28;20640;-55
2022/05/30 13:36:48;;;;;;;2.15;1.65;;;;;;;;;;5052985;28;20390;-56
2022/05/30 13:39:14;;;;;;;2.92;1.55;;;;;;;;;;5057307;28;20088;-55
2022/05/30 13:41:40;;;;;;;3.45;1.83;;;;;;;;;;5059793;28;20056;-55
2022/05/30 13:44:11;;;;;;;2.03;1.52;;;;;;;;;;5056900;28;20032;-55
2022/05/30 13:46:43;;;;;;;3.22;1.90;;;;;;;;;;5067282;28;20020;-55
2022/05/30 13:49:09;;;;;;;3.17;1.55;;;;;;;;;;5066525;28;20040;-55
2022/05/30 13:51:41;;;;;;;5.57;1.77;;;;;;;;;;5060392;28;20052;-54
2022/05/30 13:54:08;;;;;;;2.22;1.58;;;;;;;;;;5058967;28;20047;-55
2022/05/30 13:56:45;;;;;;;3.58;1.30;;;;;;;;;;5064558;28;20040;-56
2022/05/30 13:59:26;;;;;;;2.55;1.65;;;;;;;;;;5068105;28;20032;-57
2022/05/30 14:01:57;;;;;;;2.30;1.20;;;;;;;;;;5068368;28;20051;-56
2022/05/30 14:04:53;;;;;;;2.35;1.40;;;;;;;;;;5066756;28;20510;-58
2022/05/30 14:07:21;;;;;;;2.53;1.23;;;;;;;;;;5062024;28;20041;-57
2022/05/30 14:09:48;;;;;;;2.25;1.35;;;;;;;;;;5065582;28;20032;-58
2022/05/30 14:12:15;;;;;;;2.65;1.60;;;;;;;;;;5064016;28;20024;-57
2022/05/30 14:14:45;;;;;;;2.63;1.40;;;;;;;;;;5069427;28;20036;-57
2022/05/30 14:17:12;;;;;;;2.80;1.50;;;;;;;;;;5060573;28;20036;-57
2022/05/30 14:19:40;;;;;;;8.85;1.60;;;;;;;;;;5065377;28;20506;-56
2022/05/30 14:22:16;;;;;;;2.80;1.50;;;;;;;;;;5068161;28;20025;-56
2022/05/30 14:24:58;;;;;;;3.83;1.52;;;;;;;;;;5065206;28;20063;-58
2022/05/30 14:27:29;;;;;;;3.40;1.60;;;;;;;;;;5059797;28;20044;-60
2022/05/30 14:30:00;;;;;;;3.28;1.50;;;;;;;;;;5057418;28;20067;-58
2022/05/30 14:32:29;;;;;;;4.13;1.50;;;;;;;;;;5058978;28;20052;-58
2022/05/30 14:35:23;;;;;;;2.60;1.80;;;;;;;;;;5057715;28;20033;-61
2022/05/30 14:37:52;;;;;;;5.18;1.60;;;;;;;;;;5063855;28;20033;-58
2022/05/30 14:40:26;;;;;;;3.65;1.80;;;;;;;;;;5064309;28;20549;-59
2022/05/30 14:42:58;;;;;;;3.38;1.80;;;;;;;;;;5062422;28;20048;-59
2022/05/30 14:45:34;;;;;;;5.65;1.60;;;;;;;;;;5067875;28;20027;-59
2022/05/30 14:48:04;;;;;;;2.00;1.20;;;;;;;;;;5063851;28;20020;-59
2022/05/30 14:50:39;;;;;;;4.57;2.15;;;;;;;;;;5064079;28;20047;-60
2022/05/30 14:53:06;;;;;;;4.45;1.80;;;;;;;;;;5066711;28;20024;-60
2022/05/30 14:55:34;;;;;;;3.08;1.55;;;;;;;;;;5064472;28;20021;-60
2022/05/30 14:58:11;;;;;;;4.50;1.70;;;;;;;;;;5066325;28;20032;-60
2022/05/30 15:00:41;;;;;;;2.70;1.50;;;;;;;;;;5064536;28;20028;-60
2022/05/30 15:05:52;;;;;;;2.75;1.58;;;;;;;;;;5059887;28;20032;-60
2022/05/30 15:08:18;;;;;;;2.47;1.73;;;;;;;;;;5061779;28;20040;-60
2022/05/30 15:10:45;;;;;;;2.13;1.50;;;;;;;;;;5065370;28;20033;-60
2022/05/30 15:13:10;;;;;;;3.08;1.60;;;;;;;;;;5069888;28;20020;-60
2022/05/30 15:15:35;;;;;;;2.17;1.60;;;;;;;;;;5064154;28;20039;-60
2022/05/30 15:18:01;;;;;;;2.55;1.60;;;;;;;;;;5059537;28;20026;-60
2022/05/30 15:20:26;;;;;;;2.90;1.40;;;;;;;;;;5059580;28;20047;-59
2022/05/30 15:22:58;;;;;;;3.13;1.60;;;;;;;;;;5061206;28;20063;-60
2022/05/30 15:25:25;;;;;;;3.67;1.90;;;;;;;;;;5059627;28;20028;-59
2022/05/30 15:27:51;;;;;;;2.80;1.60;;;;;;;;;;5057338;28;20030;-60
2022/05/30 15:30:17;;;;;;;4.38;2.67;;;;;;;;;;5060791;28;20107;-60
2022/05/30 15:32:43;;;;;;;3.42;1.80;;;;;;;;;;5065696;28;20044;-60
2022/05/30 15:35:09;;;;;;;3.83;1.48;;;;;;;;;;5065280;28;20027;-60
2022/05/30 15:37:34;;;;;;;1.67;1.20;;;;;;;;;;5069184;28;20032;-60